Time;durP1;ratioP1;P1;durP2;ratioP2;P2;SDS_P1;SDS_P2;PMS_P1;PMS_P2;Temp;Humidity;BMP_temperature;BMP_pressure;BME280_temperature;BME280_humidity;BME280_pressure;Samples;Min_cycle;Max_cycle;Signal;HPM_P1;HPM_P2
2024/01/07 00:02:09;;;;;;;;;;;2.50;99.90;;;;;;8434333;28;19924;-76
2024/01/07 00:06:11;;;;;;;;;;;2.50;99.90;;;;;;8414027;28;19932;-76
2024/01/07 00:10:13;;;;;;;;;;;2.50;99.90;;;;;;8432077;28;20387;-76
2024/01/07 00:14:15;;;;;;;;;;;2.50;99.90;;;;;;8446397;28;19972;-76
2024/01/07 00:18:17;;;;;;;;;;;2.50;99.90;;;;;;8442155;28;19924;-76
2024/01/07 00:22:18;;;;;;;;;;;2.40;99.90;;;;;;8428535;28;19924;-76
2024/01/07 00:26:20;;;;;;;;;;;2.40;99.90;;;;;;8437185;28;19924;-76
2024/01/07 00:30:22;;;;;;;;;;;2.30;99.90;;;;;;8432616;28;20349;-76
2024/01/07 00:34:23;;;;;;;;;;;2.30;99.90;;;;;;8411051;28;19965;-76
2024/01/07 00:38:25;;;;;;;;;;;2.30;99.90;;;;;;8433542;28;19924;-76
2024/01/07 00:42:27;;;;;;;;;;;2.30;99.90;;;;;;8430532;28;19924;-76
2024/01/07 00:46:28;;;;;;;;;;;2.30;99.90;;;;;;8419409;28;19928;-76
2024/01/07 00:50:30;;;;;;;;;;;2.30;99.90;;;;;;8436442;28;19924;-76
2024/01/07 00:54:32;;;;;;;;;;;2.30;99.90;;;;;;8418753;28;20240;-76
2024/01/07 00:58:35;;;;;;;;;;;2.30;99.90;;;;;;8420232;28;19977;-76
2024/01/07 01:02:37;;;;;;;;;;;2.30;99.90;;;;;;8416586;28;20395;-76
2024/01/07 01:06:39;;;;;;;;;;;2.30;99.90;;;;;;8440059;28;19924;-76
2024/01/07 01:10:40;;;;;;;;;;;2.30;99.90;;;;;;8443821;28;19928;-76
2024/01/07 01:14:42;;;;;;;;;;;2.30;99.90;;;;;;8434628;28;20421;-76
2024/01/07 01:18:44;;;;;;;;;;;2.30;99.90;;;;;;8421682;28;19931;-76
2024/01/07 01:22:45;;;;;;;;;;;2.30;99.90;;;;;;8447723;28;19931;-76
2024/01/07 01:26:47;;;;;;;;;;;2.20;99.90;;;;;;8427573;28;19923;-76
2024/01/07 01:30:49;;;;;;;;;;;2.30;99.90;;;;;;8440458;28;19924;-76
2024/01/07 01:34:50;;;;;;;;;;;2.30;99.90;;;;;;8424605;28;19938;-76
2024/01/07 01:38:52;;;;;;;;;;;2.20;99.90;;;;;;8430470;28;19924;-76
2024/01/07 01:52:56;;;;;;;;;;;2.20;99.90;;;;;;8437738;28;19969;-76
2024/01/07 01:56:57;;;;;;;;;;;2.20;99.90;;;;;;8434767;28;19928;-76
2024/01/07 02:00:59;;;;;;;;;;;2.20;99.90;;;;;;8419762;28;19924;-76
2024/01/07 02:05:02;;;;;;;;;;;2.20;99.90;;;;;;8432829;28;20352;-76
2024/01/07 02:09:03;;;;;;;;;;;2.20;99.90;;;;;;8435027;28;19969;-76
2024/01/07 02:13:05;;;;;;;;;;;2.20;99.90;;;;;;8433394;28;20292;-76
2024/01/07 02:17:07;;;;;;;;;;;2.20;99.90;;;;;;8417793;28;19994;-76
2024/01/07 02:21:09;;;;;;;;;;;2.20;99.90;;;;;;8431798;28;20249;-76
2024/01/07 02:25:11;;;;;;;;;;;2.10;99.90;;;;;;8419832;28;19930;-76
2024/01/07 02:29:13;;;;;;;;;;;2.10;99.90;;;;;;8421875;28;19967;-76
2024/01/07 02:33:15;;;;;;;;;;;2.10;99.90;;;;;;8436677;28;19928;-76
2024/01/07 02:37:16;;;;;;;;;;;2.10;99.90;;;;;;8439541;28;20358;-76
2024/01/07 02:41:19;;;;;;;;;;;2.10;99.90;;;;;;8422762;28;19924;-76
2024/01/07 02:45:21;;;;;;;;;;;2.10;99.90;;;;;;8433403;28;19925;-76
2024/01/07 02:49:23;;;;;;;;;;;2.10;99.90;;;;;;8436172;28;19983;-76
2024/01/07 02:53:25;;;;;;;;;;;2.10;99.90;;;;;;8439266;28;19931;-76
2024/01/07 02:57:26;;;;;;;;;;;2.10;99.90;;;;;;8426755;28;19928;-76
2024/01/07 03:01:28;;;;;;;;;;;2.10;99.90;;;;;;8438423;28;20314;-76
2024/01/07 03:05:32;;;;;;;;;;;2.10;99.90;;;;;;8441858;28;20273;-76
2024/01/07 03:09:34;;;;;;;;;;;2.10;99.90;;;;;;8423086;28;19924;-76
2024/01/07 03:13:36;;;;;;;;;;;2.10;99.90;;;;;;8413434;28;19924;-76
2024/01/07 03:17:37;;;;;;;;;;;2.10;99.90;;;;;;8432315;28;19924;-76
2024/01/07 03:21:39;;;;;;;;;;;2.10;99.90;;;;;;8419099;28;19943;-76
2024/01/07 03:25:41;;;;;;;;;;;2.10;99.90;;;;;;8435960;28;20417;-76
2024/01/07 03:29:42;;;;;;;;;;;2.10;99.90;;;;;;8416626;28;19931;-76
2024/01/07 03:33:44;;;;;;;;;;;2.00;99.90;;;;;;8433185;28;19939;-76
2024/01/07 03:37:46;;;;;;;;;;;2.00;99.90;;;;;;8437044;28;19970;-76
2024/01/07 03:41:48;;;;;;;;;;;2.00;99.90;;;;;;8431964;28;19927;-77
2024/01/07 03:45:49;;;;;;;;;;;2.00;99.90;;;;;;8425855;28;19924;-76
2024/01/07 03:49:51;;;;;;;;;;;2.00;99.90;;;;;;8425646;28;19924;-76
2024/01/07 03:53:53;;;;;;;;;;;2.00;99.90;;;;;;8421767;28;19928;-76
2024/01/07 03:57:54;;;;;;;;;;;2.00;99.90;;;;;;8426238;28;20329;-76
2024/01/07 04:01:57;;;;;;;;;;;2.00;99.90;;;;;;8418967;28;19950;-76
2024/01/07 04:05:58;;;;;;;;;;;2.00;99.90;;;;;;8430287;28;19924;-76
2024/01/07 04:10:00;;;;;;;;;;;1.90;99.90;;;;;;8430120;28;19978;-76
2024/01/07 04:14:02;;;;;;;;;;;2.00;99.90;;;;;;8435080;28;20335;-75
2024/01/07 04:18:04;;;;;;;;;;;1.90;99.90;;;;;;8421675;28;19923;-76
2024/01/07 04:22:06;;;;;;;;;;;1.90;99.90;;;;;;8429222;28;19939;-76
2024/01/07 04:26:07;;;;;;;;;;;1.90;99.90;;;;;;8433220;28;19924;-76
2024/01/07 04:30:10;;;;;;;;;;;1.90;99.90;;;;;;8430972;28;19923;-76
2024/01/07 04:34:12;;;;;;;;;;;1.90;99.90;;;;;;8426093;28;19986;-76
2024/01/07 04:38:13;;;;;;;;;;;1.90;99.90;;;;;;8433591;28;20019;-76
2024/01/07 04:42:18;;;;;;;;;;;1.90;99.90;;;;;;8441185;28;20366;-76
2024/01/07 04:46:20;;;;;;;;;;;1.90;99.90;;;;;;8437744;28;19954;-76
2024/01/07 04:50:21;;;;;;;;;;;1.90;99.90;;;;;;8430028;28;20005;-76
2024/01/07 04:54:23;;;;;;;;;;;1.90;99.90;;;;;;8419559;28;19931;-76
2024/01/07 04:58:25;;;;;;;;;;;1.90;99.90;;;;;;8425298;28;19967;-76
2024/01/07 05:12:33;;;;;;;;;;;1.90;99.90;;;;;;8428942;28;19923;-76
2024/01/07 05:16:35;;;;;;;;;;;1.90;99.90;;;;;;8439574;28;19930;-76
2024/01/07 05:20:37;;;;;;;;;;;1.90;99.90;;;;;;8435585;28;19939;-76
2024/01/07 05:24:39;;;;;;;;;;;1.90;99.90;;;;;;8425092;28;20295;-76
2024/01/07 05:28:40;;;;;;;;;;;1.90;99.90;;;;;;8436344;28;20387;-76
2024/01/07 05:32:42;;;;;;;;;;;1.90;99.90;;;;;;8430939;28;19928;-76
2024/01/07 05:36:44;;;;;;;;;;;1.90;99.90;;;;;;8437461;28;20018;-76
2024/01/07 05:40:45;;;;;;;;;;;1.90;99.90;;;;;;8432443;28;20065;-76
2024/01/07 05:44:48;;;;;;;;;;;1.90;99.90;;;;;;8426192;28;19992;-76
2024/01/07 05:48:50;;;;;;;;;;;1.90;99.90;;;;;;8430597;28;19924;-76
2024/01/07 05:52:51;;;;;;;;;;;1.90;99.90;;;;;;8416313;28;19997;-76
2024/01/07 05:56:53;;;;;;;;;;;1.80;99.90;;;;;;8417586;28;19935;-76
2024/01/07 06:00:55;;;;;;;;;;;1.80;99.90;;;;;;8423056;28;19931;-75
2024/01/07 06:04:57;;;;;;;;;;;1.80;99.90;;;;;;8442656;28;19930;-76
2024/01/07 06:08:59;;;;;;;;;;;1.80;99.90;;;;;;8437056;28;19923;-76
2024/01/07 06:13:00;;;;;;;;;;;1.80;99.90;;;;;;8426162;28;20406;-76
2024/01/07 06:17:02;;;;;;;;;;;1.90;99.90;;;;;;8421431;28;19924;-76
2024/01/07 06:21:04;;;;;;;;;;;1.90;99.90;;;;;;8422178;28;20330;-76
2024/01/07 06:25:06;;;;;;;;;;;1.80;99.90;;;;;;8442023;28;19928;-76
2024/01/07 06:29:09;;;;;;;;;;;1.80;99.90;;;;;;8440581;28;19950;-76
2024/01/07 06:33:12;;;;;;;;;;;1.80;99.90;;;;;;8432696;28;19924;-76
2024/01/07 06:52:23;;;;;;;;;;;1.80;99.90;;;;;;8429096;28;20120;-75
2024/01/07 06:56:25;;;;;;;;;;;1.80;99.90;;;;;;8433844;28;19927;-76
2024/01/07 07:00:27;;;;;;;;;;;1.80;99.90;;;;;;8423918;28;19932;-75
2024/01/07 07:04:29;;;;;;;;;;;1.80;99.90;;;;;;8424149;28;19967;-76
2024/01/07 07:08:31;;;;;;;;;;;1.80;99.90;;;;;;8422127;28;20006;-76
2024/01/07 07:12:32;;;;;;;;;;;1.80;99.90;;;;;;8432561;28;19928;-75
2024/01/07 07:16:36;;;;;;;;;;;1.80;99.90;;;;;;8416867;28;20197;-76
2024/01/07 07:20:38;;;;;;;;;;;1.80;99.90;;;;;;8413676;28;19924;-76
2024/01/07 07:24:41;;;;;;;;;;;1.80;99.90;;;;;;8415988;28;20383;-76
2024/01/07 07:28:42;;;;;;;;;;;1.80;99.90;;;;;;8435950;28;20007;-76
2024/01/07 07:32:44;;;;;;;;;;;1.70;99.90;;;;;;8437488;28;19970;-76
2024/01/07 07:36:46;;;;;;;;;;;1.70;99.90;;;;;;8437729;28;19924;-76
2024/01/07 07:40:52;;;;;;;;;;;1.70;99.90;;;;;;8429251;28;19931;-76
2024/01/07 07:44:54;;;;;;;;;;;1.70;99.90;;;;;;8415119;28;19932;-76
2024/01/07 07:48:56;;;;;;;;;;;1.70;99.90;;;;;;8439022;28;19930;-75
2024/01/07 07:52:58;;;;;;;;;;;1.70;99.90;;;;;;8435113;28;19931;-76
2024/01/07 07:56:59;;;;;;;;;;;1.70;99.90;;;;;;8442943;28;20276;-76
2024/01/07 08:01:01;;;;;;;;;;;1.70;99.90;;;;;;8428517;28;19973;-76
2024/01/07 08:05:03;;;;;;;;;;;1.70;99.90;;;;;;8428509;28;19975;-76
2024/01/07 08:09:05;;;;;;;;;;;1.60;99.90;;;;;;8430279;28;20047;-75
2024/01/07 08:13:07;;;;;;;;;;;1.60;99.90;;;;;;8434413;28;19993;-77
2024/01/07 08:17:09;;;;;;;;;;;1.60;99.90;;;;;;8443967;28;20275;-75
2024/01/07 08:21:10;;;;;;;;;;;1.60;99.90;;;;;;8429212;28;20038;-76
2024/01/07 08:25:13;;;;;;;;;;;1.60;99.90;;;;;;8412066;28;19931;-76
2024/01/07 08:29:14;;;;;;;;;;;1.60;99.90;;;;;;8440277;28;20296;-76
2024/01/07 08:33:16;;;;;;;;;;;1.60;99.90;;;;;;8432458;28;19958;-76
2024/01/07 08:37:18;;;;;;;;;;;1.60;99.90;;;;;;8433543;28;19931;-75
2024/01/07 08:41:19;;;;;;;;;;;1.60;99.90;;;;;;8431838;28;20022;-76
2024/01/07 08:45:22;;;;;;;;;;;1.60;99.90;;;;;;8421019;28;19977;-76
2024/01/07 08:49:24;;;;;;;;;;;1.60;99.90;;;;;;8419045;28;20387;-76
2024/01/07 08:53:26;;;;;;;;;;;1.50;99.90;;;;;;8425786;28;19934;-76
2024/01/07 08:57:28;;;;;;;;;;;1.50;99.90;;;;;;8436114;28;19931;-76
2024/01/07 09:01:29;;;;;;;;;;;1.50;99.90;;;;;;8437118;28;20440;-76
2024/01/07 09:05:31;;;;;;;;;;;1.50;99.90;;;;;;8447182;28;20276;-76
2024/01/07 09:09:33;;;;;;;;;;;1.50;99.90;;;;;;8427515;28;19924;-76
2024/01/07 09:13:35;;;;;;;;;;;1.50;99.90;;;;;;8434461;28;19949;-76
2024/01/07 09:17:37;;;;;;;;;;;1.50;99.90;;;;;;8416018;28;20359;-76
2024/01/07 09:21:39;;;;;;;;;;;1.50;99.90;;;;;;8416727;28;19930;-76
2024/01/07 09:25:41;;;;;;;;;;;1.50;99.90;;;;;;8422286;28;19923;-76
2024/01/07 09:29:43;;;;;;;;;;;1.50;99.90;;;;;;8416036;28;20343;-76
2024/01/07 09:33:45;;;;;;;;;;;1.60;99.90;;;;;;8444996;28;20020;-76
2024/01/07 09:37:46;;;;;;;;;;;1.60;99.90;;;;;;8431019;28;19931;-76
2024/01/07 09:41:48;;;;;;;;;;;1.60;99.90;;;;;;8443182;28;19924;-76
2024/01/07 09:45:51;;;;;;;;;;;1.60;99.90;;;;;;8437074;28;19928;-76
2024/01/07 09:49:53;;;;;;;;;;;1.60;99.90;;;;;;8440864;28;19977;-76
2024/01/07 09:53:57;;;;;;;;;;;1.60;99.90;;;;;;8430086;28;19928;-75
2024/01/07 09:57:58;;;;;;;;;;;1.70;99.90;;;;;;8427181;28;19932;-76
2024/01/07 10:02:00;;;;;;;;;;;1.60;99.90;;;;;;8432448;28;20006;-76
2024/01/07 10:06:02;;;;;;;;;;;1.60;99.90;;;;;;8435204;28;19930;-76
2024/01/07 10:10:12;;;;;;;;;;;1.70;99.90;;;;;;8451730;28;19924;-76
2024/01/07 10:14:14;;;;;;;;;;;1.70;99.90;;;;;;8427152;28;19924;-76
2024/01/07 10:18:15;;;;;;;;;;;1.80;99.90;;;;;;8430549;28;19928;-76
2024/01/07 10:22:17;;;;;;;;;;;1.80;99.90;;;;;;8414122;28;19945;-76
2024/01/07 10:26:21;;;;;;;;;;;1.70;99.90;;;;;;8440526;28;20387;-76
2024/01/07 10:30:28;;;;;;;;;;;1.80;99.90;;;;;;8424663;28;20342;-76
2024/01/07 10:34:31;;;;;;;;;;;1.90;99.90;;;;;;8445819;28;20371;-76
2024/01/07 10:38:33;;;;;;;;;;;1.90;99.90;;;;;;8425033;28;20307;-76
2024/01/07 10:42:35;;;;;;;;;;;1.90;99.90;;;;;;8438379;28;19931;-76
2024/01/07 10:46:37;;;;;;;;;;;1.90;99.90;;;;;;8446616;28;20405;-76
2024/01/07 10:50:40;;;;;;;;;;;1.90;99.90;;;;;;8423016;28;19924;-76
2024/01/07 10:54:42;;;;;;;;;;;1.80;99.90;;;;;;8438442;28;19982;-75
2024/01/07 10:58:46;;;;;;;;;;;1.80;99.90;;;;;;8440916;28;19974;-76
2024/01/07 11:02:51;;;;;;;;;;;1.80;99.90;;;;;;8444411;28;19930;-76
2024/01/07 11:07:11;;;;;;;;;;;2.10;99.90;;;;;;8425679;28;19924;-76
2024/01/07 11:11:18;;;;;;;;;;;2.80;99.90;;;;;;8430435;28;19924;-76
2024/01/07 11:15:39;;;;;;;;;;;3.70;99.90;;;;;;8418645;28;19927;-76
2024/01/07 11:19:53;;;;;;;;;;;4.40;99.90;;;;;;8436193;28;19958;-76
2024/01/07 11:23:57;;;;;;;;;;;5.00;99.90;;;;;;8420444;28;20309;-76
2024/01/07 11:28:00;;;;;;;;;;;5.30;99.90;;;;;;8414024;28;19932;-76
2024/01/07 11:32:02;;;;;;;;;;;5.70;99.90;;;;;;8443974;28;19977;-76
2024/01/07 11:36:05;;;;;;;;;;;5.50;99.90;;;;;;8443309;28;19974;-77
2024/01/07 11:40:08;;;;;;;;;;;5.20;99.90;;;;;;8420140;28;19970;-77
2024/01/07 11:44:12;;;;;;;;;;;5.70;99.90;;;;;;8415101;28;20264;-76
2024/01/07 11:48:14;;;;;;;;;;;6.40;99.90;;;;;;8418778;28;19924;-76
2024/01/07 11:52:16;;;;;;;;;;;7.10;99.90;;;;;;8437551;28;19964;-76
2024/01/07 11:56:18;;;;;;;;;;;7.70;99.90;;;;;;8437616;28;20227;-76
2024/01/07 12:00:20;;;;;;;;;;;8.20;99.90;;;;;;8429077;28;19924;-77
2024/01/07 12:04:22;;;;;;;;;;;8.60;99.90;;;;;;8451564;28;19924;-76
2024/01/07 12:08:23;;;;;;;;;;;8.60;99.90;;;;;;8425904;28;20379;-76
2024/01/07 12:12:25;;;;;;;;;;;8.60;99.90;;;;;;8425765;28;19924;-76
2024/01/07 12:16:27;;;;;;;;;;;8.60;99.90;;;;;;8433982;28;20132;-76
2024/01/07 12:20:28;;;;;;;;;;;8.50;99.90;;;;;;8417927;28;20234;-76
2024/01/07 12:24:30;;;;;;;;;;;8.60;99.90;;;;;;8434211;28;19932;-76
2024/01/07 12:28:32;;;;;;;;;;;8.90;99.90;;;;;;8435106;28;19923;-76
2024/01/07 12:32:35;;;;;;;;;;;9.10;99.90;;;;;;8441862;28;19924;-76
2024/01/07 12:36:36;;;;;;;;;;;9.20;99.90;;;;;;8415998;28;19939;-76
2024/01/07 12:40:39;;;;;;;;;;;9.30;99.90;;;;;;8423597;28;19927;-76
2024/01/07 12:44:41;;;;;;;;;;;9.20;99.90;;;;;;8426212;28;20295;-76
2024/01/07 12:48:43;;;;;;;;;;;8.90;99.90;;;;;;8436436;28;20031;-77
2024/01/07 12:52:45;;;;;;;;;;;8.60;99.90;;;;;;8438714;28;19928;-76
2024/01/07 12:56:47;;;;;;;;;;;8.30;99.90;;;;;;8430537;28;19930;-76
2024/01/07 13:00:48;;;;;;;;;;;8.60;99.90;;;;;;8422854;28;19931;-76
2024/01/07 13:04:50;;;;;;;;;;;9.20;99.90;;;;;;8447132;28;19928;-76
2024/01/07 13:08:52;;;;;;;;;;;9.70;99.90;;;;;;8466041;28;19934;-76
2024/01/07 13:12:54;;;;;;;;;;;10.10;99.90;;;;;;8449067;28;19924;-77
2024/01/07 13:17:01;;;;;;;;;;;10.00;99.90;;;;;;8440829;28;19931;-75
2024/01/07 13:21:03;;;;;;;;;;;9.70;99.90;;;;;;8453082;28;19924;-76
2024/01/07 13:25:05;;;;;;;;;;;9.80;99.90;;;;;;8444961;28;19928;-76
2024/01/07 13:29:07;;;;;;;;;;;9.90;99.90;;;;;;8428696;28;19972;-76
2024/01/07 13:33:09;;;;;;;;;;;9.50;99.90;;;;;;8422261;28;19942;-76
2024/01/07 13:37:11;;;;;;;;;;;8.50;99.90;;;;;;8433650;28;19928;-77
2024/01/07 13:41:13;;;;;;;;;;;7.30;99.90;;;;;;8441502;28;19935;-76
2024/01/07 13:45:16;;;;;;;;;;;6.40;99.90;;;;;;8448911;28;20600;-77
2024/01/07 13:49:18;;;;;;;;;;;5.70;99.90;;;;;;8449278;28;19931;-76
2024/01/07 13:53:20;;;;;;;;;;;5.40;99.90;;;;;;8427064;28;20423;-76
2024/01/07 13:57:21;;;;;;;;;;;5.30;99.90;;;;;;8435627;28;20418;-76
2024/01/07 14:01:23;;;;;;;;;;;5.30;99.90;;;;;;8440946;28;20023;-76
2024/01/07 14:05:25;;;;;;;;;;;5.40;99.90;;;;;;8450864;28;20057;-77
2024/01/07 14:09:31;;;;;;;;;;;5.30;99.90;;;;;;8427916;28;20594;-76
2024/01/07 14:13:33;;;;;;;;;;;5.20;99.90;;;;;;8443059;28;19985;-77
2024/01/07 14:17:34;;;;;;;;;;;5.00;99.90;;;;;;8441106;28;19960;-76
2024/01/07 14:21:36;;;;;;;;;;;4.80;99.90;;;;;;8417875;28;19932;-76
2024/01/07 14:25:38;;;;;;;;;;;4.70;99.90;;;;;;8440896;28;19930;-76
2024/01/07 14:29:39;;;;;;;;;;;4.50;99.90;;;;;;8440761;28;19924;-76
2024/01/07 14:33:41;;;;;;;;;;;4.30;99.90;;;;;;8435592;28;19975;-76
2024/01/07 14:37:43;;;;;;;;;;;4.10;99.90;;;;;;8426213;28;19935;-76
2024/01/07 14:41:46;;;;;;;;;;;4.10;99.90;;;;;;8449077;28;19923;-76
2024/01/07 14:45:48;;;;;;;;;;;4.10;99.90;;;;;;8445317;28;19931;-77
2024/01/07 14:49:49;;;;;;;;;;;4.00;99.90;;;;;;8436214;28;19946;-76
2024/01/07 14:53:51;;;;;;;;;;;4.00;99.90;;;;;;8454636;28;19985;-76
2024/01/07 14:57:53;;;;;;;;;;;4.10;99.90;;;;;;8443654;28;19928;-76
2024/01/07 15:01:54;;;;;;;;;;;4.60;99.90;;;;;;8425392;28;19943;-76
2024/01/07 15:05:56;;;;;;;;;;;5.20;99.90;;;;;;8430195;28;19939;-76
2024/01/07 15:09:59;;;;;;;;;;;5.70;99.90;;;;;;8441196;28;19935;-76
2024/01/07 15:14:06;;;;;;;;;;;5.90;99.90;;;;;;8444837;28;19925;-76
2024/01/07 15:18:08;;;;;;;;;;;5.70;99.90;;;;;;8446918;28;19935;-76
2024/01/07 15:22:10;;;;;;;;;;;5.70;99.90;;;;;;8438982;28;19923;-75
2024/01/07 15:26:12;;;;;;;;;;;5.30;99.90;;;;;;8451181;28;20326;-76
2024/01/07 15:30:13;;;;;;;;;;;4.90;99.90;;;;;;8435730;28;19924;-76
2024/01/07 15:34:18;;;;;;;;;;;4.50;99.90;;;;;;8426548;28;19924;-76
2024/01/07 15:38:20;;;;;;;;;;;4.20;99.90;;;;;;8432557;28;20267;-76
2024/01/07 15:42:22;;;;;;;;;;;3.80;99.90;;;;;;8430331;28;19924;-76
2024/01/07 15:46:24;;;;;;;;;;;3.50;99.90;;;;;;8434082;28;19928;-76
2024/01/07 15:50:26;;;;;;;;;;;3.40;99.90;;;;;;8408955;28;19936;-75
2024/01/07 15:54:28;;;;;;;;;;;3.30;99.90;;;;;;8401703;28;19981;-76
2024/01/07 15:58:33;;;;;;;;;;;3.20;99.90;;;;;;8434387;28;19928;-76
2024/01/07 16:02:35;;;;;;;;;;;3.10;99.90;;;;;;8427161;28;19933;-76
2024/01/07 16:06:37;;;;;;;;;;;3.00;99.90;;;;;;8425012;28;19932;-75
2024/01/07 16:10:39;;;;;;;;;;;2.80;99.90;;;;;;8426526;28;19932;-75
2024/01/07 16:14:42;;;;;;;;;;;2.80;99.90;;;;;;8434036;28;19924;-75
2024/01/07 16:18:44;;;;;;;;;;;2.70;99.90;;;;;;8433344;28;19924;-75
2024/01/07 16:22:45;;;;;;;;;;;2.60;99.90;;;;;;8418848;28;19955;-75
2024/01/07 16:26:47;;;;;;;;;;;2.50;99.90;;;;;;8424435;28;19951;-75
2024/01/07 16:30:51;;;;;;;;;;;2.50;99.90;;;;;;8425686;28;19924;-76
2024/01/07 16:34:54;;;;;;;;;;;2.50;99.90;;;;;;8431445;28;19928;-75
2024/01/07 16:38:56;;;;;;;;;;;2.40;99.90;;;;;;8429405;28;19939;-75
2024/01/07 16:42:59;;;;;;;;;;;2.40;99.90;;;;;;8428543;28;20485;-75
2024/01/07 16:47:01;;;;;;;;;;;2.30;99.90;;;;;;8426839;28;19923;-76
2024/01/07 16:51:03;;;;;;;;;;;2.30;99.90;;;;;;8424491;28;20349;-75
2024/01/07 16:55:08;;;;;;;;;;;2.40;99.90;;;;;;8427124;28;19934;-75
2024/01/07 16:59:10;;;;;;;;;;;2.30;99.90;;;;;;8427700;28;19930;-75
2024/01/07 17:03:12;;;;;;;;;;;2.30;99.90;;;;;;8427599;28;19928;-76
2024/01/07 17:07:14;;;;;;;;;;;2.20;99.90;;;;;;8424163;28;19924;-75
2024/01/07 17:11:16;;;;;;;;;;;2.10;99.90;;;;;;8415043;28;20651;-75
2024/01/07 17:15:18;;;;;;;;;;;2.00;99.90;;;;;;8430214;28;19928;-75
2024/01/07 17:19:21;;;;;;;;;;;1.90;99.90;;;;;;8433140;28;19924;-75
2024/01/07 17:23:23;;;;;;;;;;;1.80;99.90;;;;;;8427637;28;19928;-76
2024/01/07 17:27:25;;;;;;;;;;;1.80;99.90;;;;;;8405177;28;19936;-76
2024/01/07 17:31:26;;;;;;;;;;;1.80;99.90;;;;;;8425446;28;19950;-75
2024/01/07 17:35:30;;;;;;;;;;;1.70;99.90;;;;;;8417469;28;19996;-76
2024/01/07 17:39:33;;;;;;;;;;;1.70;99.90;;;;;;8426906;28;20481;-76
2024/01/07 17:43:35;;;;;;;;;;;1.70;99.90;;;;;;8418515;28;19924;-76
2024/01/07 17:47:40;;;;;;;;;;;1.60;99.90;;;;;;8418228;28;19932;-76
2024/01/07 17:51:44;;;;;;;;;;;1.60;99.90;;;;;;8435794;28;19932;-76
2024/01/07 17:55:46;;;;;;;;;;;1.60;99.90;;;;;;8428583;28;19931;-76
2024/01/07 17:59:48;;;;;;;;;;;1.50;99.90;;;;;;8418343;28;19978;-75
2024/01/07 18:03:50;;;;;;;;;;;1.50;99.90;;;;;;8432681;28;19928;-76
2024/01/07 18:07:51;;;;;;;;;;;1.50;99.90;;;;;;8426520;28;20584;-75
2024/01/07 18:11:53;;;;;;;;;;;1.40;99.90;;;;;;8435329;28;19979;-76
2024/01/07 18:15:57;;;;;;;;;;;1.40;99.90;;;;;;8434944;28;20389;-75
2024/01/07 18:19:59;;;;;;;;;;;1.30;99.90;;;;;;8435549;28;19977;-75
2024/01/07 18:24:00;;;;;;;;;;;1.20;99.90;;;;;;8426852;28;19924;-75
2024/01/07 18:28:02;;;;;;;;;;;1.20;99.90;;;;;;8434188;28;19923;-76
2024/01/07 18:32:06;;;;;;;;;;;1.20;99.90;;;;;;8440392;28;19924;-75
2024/01/07 18:36:08;;;;;;;;;;;1.10;99.90;;;;;;8437840;28;20303;-75
2024/01/07 18:40:12;;;;;;;;;;;1.10;99.90;;;;;;8420451;28;19940;-76
2024/01/07 18:44:14;;;;;;;;;;;1.10;99.90;;;;;;8424291;28;19928;-76
2024/01/07 18:48:15;;;;;;;;;;;1.00;99.90;;;;;;8428881;28;20279;-75
2024/01/07 18:52:17;;;;;;;;;;;1.00;99.90;;;;;;8429827;28;19981;-75
2024/01/07 18:56:19;;;;;;;;;;;1.00;99.90;;;;;;8421435;28;19932;-75
2024/01/07 19:00:21;;;;;;;;;;;1.00;99.90;;;;;;8406352;28;19935;-75
2024/01/07 19:04:23;;;;;;;;;;;0.90;99.90;;;;;;8411822;28;19995;-75
2024/01/07 19:08:25;;;;;;;;;;;0.90;99.90;;;;;;8422385;28;19977;-76
2024/01/07 19:12:27;;;;;;;;;;;0.90;99.90;;;;;;8428707;28;19928;-76
2024/01/07 19:16:28;;;;;;;;;;;0.80;99.90;;;;;;8427220;28;19968;-75
2024/01/07 19:20:31;;;;;;;;;;;0.80;99.90;;;;;;8406423;28;19928;-75
2024/01/07 19:24:33;;;;;;;;;;;0.70;99.90;;;;;;8425412;28;20023;-76
2024/01/07 19:28:35;;;;;;;;;;;0.70;99.90;;;;;;8405944;28;20380;-76
2024/01/07 19:32:37;;;;;;;;;;;0.70;99.90;;;;;;8424571;28;19939;-76
2024/01/07 19:36:40;;;;;;;;;;;0.60;99.90;;;;;;8423156;28;19932;-75
2024/01/07 19:40:42;;;;;;;;;;;0.60;99.90;;;;;;8423132;28;19984;-76
2024/01/07 19:44:44;;;;;;;;;;;0.60;99.90;;;;;;8425633;28;20132;-76
2024/01/07 19:48:46;;;;;;;;;;;0.50;99.90;;;;;;8429290;28;19928;-76
2024/01/07 19:52:48;;;;;;;;;;;0.50;99.90;;;;;;8413780;28;19935;-76
2024/01/07 19:56:49;;;;;;;;;;;0.50;99.90;;;;;;8413468;28;19932;-76
2024/01/07 20:00:51;;;;;;;;;;;0.40;99.90;;;;;;8428334;28;19932;-76
2024/01/07 20:04:53;;;;;;;;;;;0.40;99.90;;;;;;8411081;28;20468;-76
2024/01/07 20:08:55;;;;;;;;;;;0.40;99.90;;;;;;8413904;28;19938;-76
2024/01/07 20:12:58;;;;;;;;;;;0.30;99.90;;;;;;8409973;28;19974;-76
2024/01/07 20:17:00;;;;;;;;;;;0.30;99.90;;;;;;8414672;28;19936;-76
2024/01/07 20:21:01;;;;;;;;;;;0.30;99.90;;;;;;8425549;28;19928;-76
2024/01/07 20:25:07;;;;;;;;;;;0.30;99.90;;;;;;8429242;28;19973;-76
2024/01/07 20:29:11;;;;;;;;;;;0.20;99.90;;;;;;8425982;28;19928;-76
2024/01/07 20:33:15;;;;;;;;;;;0.20;99.90;;;;;;8431463;28;19939;-77
2024/01/07 20:37:17;;;;;;;;;;;0.10;99.90;;;;;;8431403;28;20343;-76
2024/01/07 20:41:19;;;;;;;;;;;0.10;99.90;;;;;;8429147;28;19931;-76
2024/01/07 20:45:25;;;;;;;;;;;0.10;99.90;;;;;;8432385;28;19927;-76
2024/01/07 20:49:26;;;;;;;;;;;0.00;99.90;;;;;;8411927;28;19957;-76
2024/01/07 20:58:32;;;;;;;;;;;0.00;99.90;;;;;;8423765;28;19927;-76
2024/01/07 21:12:34;;;;;;;;;;;-0.10;99.90;;;;;;8433369;28;19923;-76
2024/01/07 21:16:36;;;;;;;;;;;-0.30;99.90;;;;;;8421393;28;19935;-76
2024/01/07 21:20:39;;;;;;;;;;;-0.30;99.90;;;;;;8433960;28;19927;-76
2024/01/07 21:24:40;;;;;;;;;;;-0.30;99.90;;;;;;8434402;28;20405;-77
2024/01/07 21:28:42;;;;;;;;;;;-0.30;99.90;;;;;;8437508;28;19935;-76
2024/01/07 21:32:44;;;;;;;;;;;-0.30;99.90;;;;;;8435613;28;19934;-76
2024/01/07 21:36:46;;;;;;;;;;;-0.40;99.90;;;;;;8439360;28;19923;-76
2024/01/07 21:40:50;;;;;;;;;;;-0.40;99.90;;;;;;8434008;28;19931;-76
2024/01/07 21:44:52;;;;;;;;;;;-0.50;99.90;;;;;;8434982;28;19995;-76
2024/01/07 21:48:56;;;;;;;;;;;-0.50;99.90;;;;;;8409531;28;19967;-77
2024/01/07 21:52:57;;;;;;;;;;;-0.50;99.90;;;;;;8434269;28;19931;-76
2024/01/07 21:56:59;;;;;;;;;;;-0.60;99.90;;;;;;8433372;28;20279;-76
2024/01/07 22:01:03;;;;;;;;;;;-0.60;99.90;;;;;;8435604;28;19924;-76
2024/01/07 22:05:05;;;;;;;;;;;-0.70;99.90;;;;;;8420038;28;19924;-76
2024/01/07 22:09:07;;;;;;;;;;;-0.70;99.90;;;;;;8420300;28;19924;-76
2024/01/07 22:13:08;;;;;;;;;;;-0.70;99.90;;;;;;8442726;28;19973;-76
2024/01/07 22:17:10;;;;;;;;;;;-0.60;99.90;;;;;;8440909;28;19974;-77
2024/01/07 22:21:18;;;;;;;;;;;-0.60;99.90;;;;;;8449077;28;20011;-76
2024/01/07 22:25:21;;;;;;;;;;;-0.60;99.90;;;;;;8417763;28;19923;-76
2024/01/07 22:29:22;;;;;;;;;;;-0.60;99.90;;;;;;8439121;28;19923;-76
2024/01/07 22:33:24;;;;;;;;;;;-0.50;99.90;;;;;;8449855;28;19963;-77
2024/01/07 22:37:26;;;;;;;;;;;-0.50;99.90;;;;;;8437454;28;20019;-76
2024/01/07 22:41:30;;;;;;;;;;;-0.50;99.90;;;;;;8441589;28;20177;-76
2024/01/07 22:45:32;;;;;;;;;;;-0.50;99.90;;;;;;8419332;28;19928;-76
2024/01/07 22:49:33;;;;;;;;;;;-0.50;99.90;;;;;;8417680;28;19928;-76
2024/01/07 22:53:35;;;;;;;;;;;-0.50;99.90;;;;;;8442820;28;19935;-76
2024/01/07 23:12:40;;;;;;;;;;;-0.40;99.90;;;;;;8443865;28;19919;-76
2024/01/07 23:16:42;;;;;;;;;;;-0.50;99.90;;;;;;8395675;28;19944;-76
2024/01/07 23:20:44;;;;;;;;;;;-0.50;99.90;;;;;;8410624;28;20326;-77
2024/01/07 23:24:45;;;;;;;;;;;-0.40;99.90;;;;;;8394736;28;21091;-77
2024/01/07 23:28:47;;;;;;;;;;;-0.40;99.90;;;;;;8400248;28;20959;-76
2024/01/07 23:32:49;;;;;;;;;;;-0.40;99.90;;;;;;8406429;28;20387;-76
2024/01/07 23:36:50;;;;;;;;;;;-0.40;99.90;;;;;;8413329;28;20303;-76
2024/01/07 23:40:52;;;;;;;;;;;-0.40;99.90;;;;;;8406230;28;19932;-76
2024/01/07 23:44:54;;;;;;;;;;;-0.40;99.90;;;;;;8405365;28;19978;-76
2024/01/07 23:48:56;;;;;;;;;;;-0.40;99.90;;;;;;8400640;28;19977;-76
2024/01/07 23:52:57;;;;;;;;;;;-0.30;99.90;;;;;;8403615;28;20343;-76
2024/01/07 23:56:59;;;;;;;;;;;-0.30;99.90;;;;;;8410126;28;19935;-76
